sensor_id;sensor_type;location;lat;lon;timestamp;temperature;humidity
52451;DHT22;38366;53.176;6.540;2022-12-29T00:02:10;10.70;99.90
52451;DHT22;38366;53.176;6.540;2022-12-29T00:04:36;10.70;99.90
52451;DHT22;38366;53.176;6.540;2022-12-29T00:07:01;10.60;99.90
52451;DHT22;38366;53.176;6.540;2022-12-29T00:09:29;10.60;99.90
52451;DHT22;38366;53.176;6.540;2022-12-29T00:11:55;10.60;99.90
52451;DHT22;38366;53.176;6.540;2022-12-29T00:14:21;10.50;99.90
52451;DHT22;38366;53.176;6.540;2022-12-29T00:17:05;10.50;99.90
52451;DHT22;38366;53.176;6.540;2022-12-29T00:19:31;10.50;99.90
52451;DHT22;38366;53.176;6.540;2022-12-29T00:22:15;10.60;99.90
52451;DHT22;38366;53.176;6.540;2022-12-29T00:24:59;10.60;99.90
52451;DHT22;38366;53.176;6.540;2022-12-29T00:27:43;10.60;99.90
52451;DHT22;38366;53.176;6.540;2022-12-29T00:30:28;10.70;99.90
52451;DHT22;38366;53.176;6.540;2022-12-29T00:33:13;10.80;99.90
52451;DHT22;38366;53.176;6.540;2022-12-29T00:36:08;10.80;99.90
52451;DHT22;38366;53.176;6.540;2022-12-29T00:38:35;10.80;99.90
52451;DHT22;38366;53.176;6.540;2022-12-29T00:41:21;10.80;99.90
52451;DHT22;38366;53.176;6.540;2022-12-29T00:44:06;10.80;99.90
52451;DHT22;38366;53.176;6.540;2022-12-29T00:46:32;10.80;99.90
52451;DHT22;38366;53.176;6.540;2022-12-29T00:48:58;10.80;99.90
52451;DHT22;38366;53.176;6.540;2022-12-29T00:51:42;10.80;99.90
52451;DHT22;38366;53.176;6.540;2022-12-29T00:54:08;10.90;99.90
52451;DHT22;38366;53.176;6.540;2022-12-29T00:56:34;10.80;99.90
52451;DHT22;38366;53.176;6.540;2022-12-29T00:59:03;10.80;99.90
52451;DHT22;38366;53.176;6.540;2022-12-29T01:01:29;10.80;99.90
52451;DHT22;38366;53.176;6.540;2022-12-29T01:03:55;10.80;99.90
52451;DHT22;38366;53.176;6.540;2022-12-29T01:06:21;10.80;99.90
52451;DHT22;38366;53.176;6.540;2022-12-29T01:08:46;10.80;99.90
52451;DHT22;38366;53.176;6.540;2022-12-29T01:11:32;10.80;99.90
52451;DHT22;38366;53.176;6.540;2022-12-29T01:13:57;10.90;99.90
52451;DHT22;38366;53.176;6.540;2022-12-29T01:16:23;10.90;99.90
52451;DHT22;38366;53.176;6.540;2022-12-29T01:18:48;10.90;99.90
52451;DHT22;38366;53.176;6.540;2022-12-29T01:21:14;10.90;99.90
52451;DHT22;38366;53.176;6.540;2022-12-29T01:23:39;10.90;99.90
52451;DHT22;38366;53.176;6.540;2022-12-29T01:26:12;10.80;99.90
52451;DHT22;38366;53.176;6.540;2022-12-29T01:28:38;10.90;99.90
52451;DHT22;38366;53.176;6.540;2022-12-29T01:31:07;10.90;99.90
52451;DHT22;38366;53.176;6.540;2022-12-29T01:33:32;11.00;99.90
52451;DHT22;38366;53.176;6.540;2022-12-29T01:36:02;10.90;99.90
52451;DHT22;38366;53.176;6.540;2022-12-29T01:38:28;10.90;99.90
52451;DHT22;38366;53.176;6.540;2022-12-29T01:40:53;10.90;99.90
52451;DHT22;38366;53.176;6.540;2022-12-29T01:43:19;10.90;99.90
52451;DHT22;38366;53.176;6.540;2022-12-29T01:45:48;10.90;99.90
52451;DHT22;38366;53.176;6.540;2022-12-29T01:48:15;10.80;99.90
52451;DHT22;38366;53.176;6.540;2022-12-29T01:50:43;10.80;99.90
52451;DHT22;38366;53.176;6.540;2022-12-29T01:53:12;10.70;99.90
52451;DHT22;38366;53.176;6.540;2022-12-29T01:55:40;10.70;99.90
52451;DHT22;38366;53.176;6.540;2022-12-29T01:58:07;10.70;99.90
52451;DHT22;38366;53.176;6.540;2022-12-29T02:00:34;10.60;99.90
52451;DHT22;38366;53.176;6.540;2022-12-29T02:03:00;10.60;99.90
52451;DHT22;38366;53.176;6.540;2022-12-29T02:08:10;10.50;99.90
52451;DHT22;38366;53.176;6.540;2022-12-29T02:10:36;10.50;99.90
52451;DHT22;38366;53.176;6.540;2022-12-29T02:13:02;10.50;99.90
52451;DHT22;38366;53.176;6.540;2022-12-29T02:15:35;10.50;99.90
52451;DHT22;38366;53.176;6.540;2022-12-29T02:33:21;10.70;99.90
52451;DHT22;38366;53.176;6.540;2022-12-29T02:36:04;10.70;99.90
52451;DHT22;38366;53.176;6.540;2022-12-29T02:38:41;10.80;99.90
52451;DHT22;38366;53.176;6.540;2022-12-29T02:43:59;10.90;99.90
52451;DHT22;38366;53.176;6.540;2022-12-29T02:52:03;11.00;99.90
52451;DHT22;38366;53.176;6.540;2022-12-29T02:54:30;10.90;99.90
52451;DHT22;38366;53.176;6.540;2022-12-29T02:57:14;10.90;99.90
52451;DHT22;38366;53.176;6.540;2022-12-29T02:59:41;10.90;99.90
52451;DHT22;38366;53.176;6.540;2022-12-29T03:07:22;10.90;99.90
52451;DHT22;38366;53.176;6.540;2022-12-29T03:09:54;10.90;99.90
52451;DHT22;38366;53.176;6.540;2022-12-29T03:13:00;11.00;99.90
52451;DHT22;38366;53.176;6.540;2022-12-29T03:15:39;11.00;99.90
52451;DHT22;38366;53.176;6.540;2022-12-29T03:18:59;10.80;99.90
52451;DHT22;38366;53.176;6.540;2022-12-29T03:24:11;10.80;99.90
52451;DHT22;38366;53.176;6.540;2022-12-29T03:26:37;10.80;99.90
52451;DHT22;38366;53.176;6.540;2022-12-29T03:29:04;10.70;99.90
52451;DHT22;38366;53.176;6.540;2022-12-29T03:31:30;10.80;99.90
52451;DHT22;38366;53.176;6.540;2022-12-29T03:33:56;10.60;99.90
52451;DHT22;38366;53.176;6.540;2022-12-29T03:36:27;10.60;99.90
52451;DHT22;38366;53.176;6.540;2022-12-29T03:38:58;10.60;99.90
52451;DHT22;38366;53.176;6.540;2022-12-29T03:41:25;10.60;99.90
52451;DHT22;38366;53.176;6.540;2022-12-29T03:43:52;10.40;99.90
52451;DHT22;38366;53.176;6.540;2022-12-29T03:46:18;10.40;99.90
52451;DHT22;38366;53.176;6.540;2022-12-29T03:48:43;10.40;99.90
52451;DHT22;38366;53.176;6.540;2022-12-29T03:51:09;10.40;99.90
52451;DHT22;38366;53.176;6.540;2022-12-29T03:53:35;10.40;99.90
52451;DHT22;38366;53.176;6.540;2022-12-29T03:56:00;10.40;99.90
52451;DHT22;38366;53.176;6.540;2022-12-29T03:58:26;10.40;99.90
52451;DHT22;38366;53.176;6.540;2022-12-29T04:00:51;10.40;99.90
52451;DHT22;38366;53.176;6.540;2022-12-29T04:03:17;10.50;99.90
52451;DHT22;38366;53.176;6.540;2022-12-29T04:05:43;10.50;99.90
52451;DHT22;38366;53.176;6.540;2022-12-29T04:08:08;10.50;99.90
52451;DHT22;38366;53.176;6.540;2022-12-29T04:10:34;10.50;99.90
52451;DHT22;38366;53.176;6.540;2022-12-29T04:12:59;10.50;99.90
52451;DHT22;38366;53.176;6.540;2022-12-29T04:15:25;10.50;99.90
52451;DHT22;38366;53.176;6.540;2022-12-29T04:17:51;10.50;99.90
52451;DHT22;38366;53.176;6.540;2022-12-29T04:20:17;10.50;99.90
52451;DHT22;38366;53.176;6.540;2022-12-29T04:23:02;10.50;99.90
52451;DHT22;38366;53.176;6.540;2022-12-29T04:25:28;10.50;99.90
52451;DHT22;38366;53.176;6.540;2022-12-29T04:27:53;10.50;99.90
52451;DHT22;38366;53.176;6.540;2022-12-29T04:30:19;10.40;99.90
52451;DHT22;38366;53.176;6.540;2022-12-29T04:32:44;10.40;99.90
52451;DHT22;38366;53.176;6.540;2022-12-29T04:35:10;10.40;99.90
52451;DHT22;38366;53.176;6.540;2022-12-29T04:37:35;10.40;99.90
52451;DHT22;38366;53.176;6.540;2022-12-29T04:40:01;10.40;99.90
52451;DHT22;38366;53.176;6.540;2022-12-29T04:42:26;10.40;99.90
52451;DHT22;38366;53.176;6.540;2022-12-29T04:44:52;10.30;99.90
52451;DHT22;38366;53.176;6.540;2022-12-29T04:47:18;10.30;99.90
52451;DHT22;38366;53.176;6.540;2022-12-29T04:49:43;10.20;99.90
52451;DHT22;38366;53.176;6.540;2022-12-29T04:52:09;10.30;99.90
52451;DHT22;38366;53.176;6.540;2022-12-29T04:54:34;10.30;99.90
52451;DHT22;38366;53.176;6.540;2022-12-29T04:57:00;10.20;99.90
52451;DHT22;38366;53.176;6.540;2022-12-29T04:59:25;10.10;99.90
52451;DHT22;38366;53.176;6.540;2022-12-29T05:01:51;10.10;99.90
52451;DHT22;38366;53.176;6.540;2022-12-29T05:04:17;10.10;99.90
52451;DHT22;38366;53.176;6.540;2022-12-29T05:06:42;10.10;99.90
52451;DHT22;38366;53.176;6.540;2022-12-29T05:09:08;10.10;99.90
52451;DHT22;38366;53.176;6.540;2022-12-29T05:11:34;9.90;99.90
52451;DHT22;38366;53.176;6.540;2022-12-29T05:13:59;9.90;99.90
52451;DHT22;38366;53.176;6.540;2022-12-29T05:16:25;9.90;99.90
52451;DHT22;38366;53.176;6.540;2022-12-29T05:18:50;9.80;99.90
52451;DHT22;38366;53.176;6.540;2022-12-29T05:21:16;9.70;99.90
52451;DHT22;38366;53.176;6.540;2022-12-29T05:23:42;9.70;99.90
52451;DHT22;38366;53.176;6.540;2022-12-29T05:26:07;9.70;99.90
52451;DHT22;38366;53.176;6.540;2022-12-29T05:28:33;9.70;99.90
52451;DHT22;38366;53.176;6.540;2022-12-29T05:30:58;9.70;99.90
52451;DHT22;38366;53.176;6.540;2022-12-29T05:33:24;9.70;99.90
52451;DHT22;38366;53.176;6.540;2022-12-29T05:35:49;9.60;99.90
52451;DHT22;38366;53.176;6.540;2022-12-29T05:38:15;9.60;99.90
52451;DHT22;38366;53.176;6.540;2022-12-29T05:40:41;9.60;99.90
52451;DHT22;38366;53.176;6.540;2022-12-29T05:43:06;9.60;99.90
52451;DHT22;38366;53.176;6.540;2022-12-29T05:45:32;9.60;99.90
52451;DHT22;38366;53.176;6.540;2022-12-29T05:47:57;9.60;99.90
52451;DHT22;38366;53.176;6.540;2022-12-29T05:50:23;9.60;99.90
52451;DHT22;38366;53.176;6.540;2022-12-29T05:52:48;9.70;99.90
52451;DHT22;38366;53.176;6.540;2022-12-29T05:55:14;9.70;99.90
52451;DHT22;38366;53.176;6.540;2022-12-29T05:57:40;9.70;99.90
52451;DHT22;38366;53.176;6.540;2022-12-29T06:00:05;9.70;99.90
52451;DHT22;38366;53.176;6.540;2022-12-29T06:02:31;9.70;99.90
52451;DHT22;38366;53.176;6.540;2022-12-29T06:04:57;9.70;99.90
52451;DHT22;38366;53.176;6.540;2022-12-29T06:07:22;9.70;99.90
52451;DHT22;38366;53.176;6.540;2022-12-29T06:09:48;9.70;99.90
52451;DHT22;38366;53.176;6.540;2022-12-29T06:12:13;9.70;99.90
52451;DHT22;38366;53.176;6.540;2022-12-29T06:14:39;9.70;99.90
52451;DHT22;38366;53.176;6.540;2022-12-29T06:17:05;9.70;99.90
52451;DHT22;38366;53.176;6.540;2022-12-29T06:19:30;9.70;99.90
52451;DHT22;38366;53.176;6.540;2022-12-29T06:21:56;9.80;99.90
52451;DHT22;38366;53.176;6.540;2022-12-29T06:24:21;9.80;99.90
52451;DHT22;38366;53.176;6.540;2022-12-29T06:26:47;9.80;99.90
52451;DHT22;38366;53.176;6.540;2022-12-29T06:29:12;9.80;99.90
52451;DHT22;38366;53.176;6.540;2022-12-29T06:31:42;9.70;99.90
52451;DHT22;38366;53.176;6.540;2022-12-29T06:34:08;9.60;99.90
52451;DHT22;38366;53.176;6.540;2022-12-29T06:36:34;9.50;99.90
52451;DHT22;38366;53.176;6.540;2022-12-29T06:39:00;9.50;99.90
52451;DHT22;38366;53.176;6.540;2022-12-29T06:41:25;9.50;99.90
52451;DHT22;38366;53.176;6.540;2022-12-29T06:43:51;9.50;99.90
52451;DHT22;38366;53.176;6.540;2022-12-29T06:46:16;9.50;99.90
52451;DHT22;38366;53.176;6.540;2022-12-29T06:48:42;9.50;99.90
52451;DHT22;38366;53.176;6.540;2022-12-29T06:51:08;9.50;99.90
52451;DHT22;38366;53.176;6.540;2022-12-29T06:53:33;9.50;99.90
52451;DHT22;38366;53.176;6.540;2022-12-29T06:55:59;9.50;99.90
52451;DHT22;38366;53.176;6.540;2022-12-29T06:58:25;9.50;99.90
52451;DHT22;38366;53.176;6.540;2022-12-29T07:00:50;9.40;99.90
52451;DHT22;38366;53.176;6.540;2022-12-29T07:03:16;9.40;99.90
52451;DHT22;38366;53.176;6.540;2022-12-29T07:05:42;9.50;99.90
52451;DHT22;38366;53.176;6.540;2022-12-29T07:08:07;9.50;99.90
52451;DHT22;38366;53.176;6.540;2022-12-29T07:10:33;9.60;99.90
52451;DHT22;38366;53.176;6.540;2022-12-29T07:12:59;9.60;99.90
52451;DHT22;38366;53.176;6.540;2022-12-29T07:15:24;9.70;99.90
52451;DHT22;38366;53.176;6.540;2022-12-29T07:17:50;9.60;99.90
52451;DHT22;38366;53.176;6.540;2022-12-29T07:20:16;9.60;99.90
52451;DHT22;38366;53.176;6.540;2022-12-29T07:22:41;9.60;99.90
52451;DHT22;38366;53.176;6.540;2022-12-29T07:25:07;9.70;99.90
52451;DHT22;38366;53.176;6.540;2022-12-29T07:27:33;9.80;99.90
52451;DHT22;38366;53.176;6.540;2022-12-29T07:29:58;9.80;99.90
52451;DHT22;38366;53.176;6.540;2022-12-29T07:32:24;9.80;99.90
52451;DHT22;38366;53.176;6.540;2022-12-29T07:34:50;9.90;99.90
52451;DHT22;38366;53.176;6.540;2022-12-29T07:37:15;9.80;99.90
52451;DHT22;38366;53.176;6.540;2022-12-29T07:39:41;9.90;99.90
52451;DHT22;38366;53.176;6.540;2022-12-29T07:42:06;9.90;99.90
52451;DHT22;38366;53.176;6.540;2022-12-29T07:44:32;9.90;99.90
52451;DHT22;38366;53.176;6.540;2022-12-29T07:46:57;9.90;99.90
52451;DHT22;38366;53.176;6.540;2022-12-29T07:49:23;9.90;99.90
52451;DHT22;38366;53.176;6.540;2022-12-29T07:51:49;9.80;99.90
52451;DHT22;38366;53.176;6.540;2022-12-29T07:54:14;9.90;99.90
52451;DHT22;38366;53.176;6.540;2022-12-29T07:56:43;9.90;99.90
52451;DHT22;38366;53.176;6.540;2022-12-29T07:59:09;9.90;99.90
52451;DHT22;38366;53.176;6.540;2022-12-29T08:01:34;9.90;99.90
52451;DHT22;38366;53.176;6.540;2022-12-29T08:04:00;9.90;99.90
52451;DHT22;38366;53.176;6.540;2022-12-29T08:06:26;9.90;99.90
52451;DHT22;38366;53.176;6.540;2022-12-29T08:08:51;9.90;99.90
52451;DHT22;38366;53.176;6.540;2022-12-29T08:11:17;9.90;99.90
52451;DHT22;38366;53.176;6.540;2022-12-29T08:13:42;9.90;99.90
52451;DHT22;38366;53.176;6.540;2022-12-29T08:16:08;10.00;99.90
52451;DHT22;38366;53.176;6.540;2022-12-29T08:18:34;9.90;99.90
52451;DHT22;38366;53.176;6.540;2022-12-29T08:21:03;9.90;99.90
52451;DHT22;38366;53.176;6.540;2022-12-29T08:23:29;9.80;99.90
52451;DHT22;38366;53.176;6.540;2022-12-29T08:25:58;9.80;99.90
52451;DHT22;38366;53.176;6.540;2022-12-29T08:28:24;9.80;99.90
52451;DHT22;38366;53.176;6.540;2022-12-29T08:30:49;9.90;99.90
52451;DHT22;38366;53.176;6.540;2022-12-29T08:33:15;10.00;99.90
52451;DHT22;38366;53.176;6.540;2022-12-29T08:35:40;10.00;99.90
52451;DHT22;38366;53.176;6.540;2022-12-29T08:38:06;10.10;99.90
52451;DHT22;38366;53.176;6.540;2022-12-29T08:40:31;10.10;99.90
52451;DHT22;38366;53.176;6.540;2022-12-29T08:42:57;9.80;99.90
52451;DHT22;38366;53.176;6.540;2022-12-29T08:45:22;9.80;99.90
52451;DHT22;38366;53.176;6.540;2022-12-29T08:47:48;9.60;99.90
52451;DHT22;38366;53.176;6.540;2022-12-29T08:50:14;9.70;99.90
52451;DHT22;38366;53.176;6.540;2022-12-29T08:52:39;9.60;99.90
52451;DHT22;38366;53.176;6.540;2022-12-29T08:55:05;9.60;99.90
52451;DHT22;38366;53.176;6.540;2022-12-29T08:57:30;9.50;99.90
52451;DHT22;38366;53.176;6.540;2022-12-29T08:59:56;9.40;99.90
52451;DHT22;38366;53.176;6.540;2022-12-29T09:02:22;9.40;99.90
52451;DHT22;38366;53.176;6.540;2022-12-29T09:04:47;9.50;99.90
52451;DHT22;38366;53.176;6.540;2022-12-29T09:07:13;9.60;99.90
52451;DHT22;38366;53.176;6.540;2022-12-29T09:09:38;9.60;99.90
52451;DHT22;38366;53.176;6.540;2022-12-29T09:12:04;9.60;99.90
52451;DHT22;38366;53.176;6.540;2022-12-29T09:14:30;9.60;99.90
52451;DHT22;38366;53.176;6.540;2022-12-29T09:16:55;9.60;99.90
52451;DHT22;38366;53.176;6.540;2022-12-29T09:19:40;9.60;99.90
52451;DHT22;38366;53.176;6.540;2022-12-29T09:22:05;9.70;99.90
52451;DHT22;38366;53.176;6.540;2022-12-29T09:24:31;9.60;99.90
52451;DHT22;38366;53.176;6.540;2022-12-29T09:26:56;9.60;99.90
52451;DHT22;38366;53.176;6.540;2022-12-29T09:29:22;9.70;99.90
52451;DHT22;38366;53.176;6.540;2022-12-29T09:31:48;9.60;99.90
52451;DHT22;38366;53.176;6.540;2022-12-29T09:34:13;8.50;99.90
52451;DHT22;38366;53.176;6.540;2022-12-29T09:36:39;9.50;99.90
52451;DHT22;38366;53.176;6.540;2022-12-29T09:39:04;9.50;99.90
52451;DHT22;38366;53.176;6.540;2022-12-29T09:41:33;9.50;99.90
52451;DHT22;38366;53.176;6.540;2022-12-29T09:46:46;9.60;99.90
52451;DHT22;38366;53.176;6.540;2022-12-29T09:49:19;9.50;99.90
52451;DHT22;38366;53.176;6.540;2022-12-29T09:51:53;9.30;99.90
52451;DHT22;38366;53.176;6.540;2022-12-29T09:56:53;9.40;99.90
52451;DHT22;38366;53.176;6.540;2022-12-29T09:59:21;9.50;99.90
52451;DHT22;38366;53.176;6.540;2022-12-29T10:02:03;9.50;99.90
52451;DHT22;38366;53.176;6.540;2022-12-29T10:04:30;9.50;99.90
52451;DHT22;38366;53.176;6.540;2022-12-29T10:07:14;9.60;99.90
52451;DHT22;38366;53.176;6.540;2022-12-29T10:09:46;9.60;99.90
52451;DHT22;38366;53.176;6.540;2022-12-29T10:17:47;9.50;99.90
52451;DHT22;38366;53.176;6.540;2022-12-29T10:22:57;9.30;99.90
52451;DHT22;38366;53.176;6.540;2022-12-29T10:25:25;9.40;99.90
52451;DHT22;38366;53.176;6.540;2022-12-29T10:27:52;9.20;99.90
52451;DHT22;38366;53.176;6.540;2022-12-29T10:30:19;9.20;99.90
52451;DHT22;38366;53.176;6.540;2022-12-29T10:32:55;9.20;99.90
52451;DHT22;38366;53.176;6.540;2022-12-29T10:35:23;9.20;99.90
52451;DHT22;38366;53.176;6.540;2022-12-29T10:40:32;9.00;99.90
52451;DHT22;38366;53.176;6.540;2022-12-29T10:42:58;9.00;99.90
52451;DHT22;38366;53.176;6.540;2022-12-29T10:45:25;9.00;99.90
52451;DHT22;38366;53.176;6.540;2022-12-29T10:48:03;9.00;99.90
52451;DHT22;38366;53.176;6.540;2022-12-29T10:50:30;8.90;99.90
52451;DHT22;38366;53.176;6.540;2022-12-29T10:52:57;8.80;99.90
52451;DHT22;38366;53.176;6.540;2022-12-29T10:55:27;8.70;99.90
52451;DHT22;38366;53.176;6.540;2022-12-29T10:57:54;8.70;99.90
52451;DHT22;38366;53.176;6.540;2022-12-29T11:00:21;8.70;99.90
52451;DHT22;38366;53.176;6.540;2022-12-29T11:07:41;8.80;99.90
52451;DHT22;38366;53.176;6.540;2022-12-29T11:12:55;9.00;99.90
52451;DHT22;38366;53.176;6.540;2022-12-29T11:15:21;9.10;99.90
52451;DHT22;38366;53.176;6.540;2022-12-29T11:17:50;9.30;99.90
52451;DHT22;38366;53.176;6.540;2022-12-29T11:20:27;9.40;99.90
52451;DHT22;38366;53.176;6.540;2022-12-29T11:22:53;9.40;99.90
52451;DHT22;38366;53.176;6.540;2022-12-29T11:25:18;9.50;99.90
52451;DHT22;38366;53.176;6.540;2022-12-29T11:27:54;9.50;99.90
52451;DHT22;38366;53.176;6.540;2022-12-29T11:30:30;9.50;99.90
52451;DHT22;38366;53.176;6.540;2022-12-29T11:32:56;9.50;99.90
52451;DHT22;38366;53.176;6.540;2022-12-29T11:35:33;10.40;99.90
52451;DHT22;38366;53.176;6.540;2022-12-29T11:37:59;9.60;99.90
52451;DHT22;38366;53.176;6.540;2022-12-29T11:40:25;9.60;99.90
52451;DHT22;38366;53.176;6.540;2022-12-29T11:42:52;9.60;99.90
52451;DHT22;38366;53.176;6.540;2022-12-29T11:47:48;9.70;99.90
52451;DHT22;38366;53.176;6.540;2022-12-29T11:50:18;9.70;99.90
52451;DHT22;38366;53.176;6.540;2022-12-29T11:52:45;9.80;99.90
52451;DHT22;38366;53.176;6.540;2022-12-29T11:55:18;10.40;99.90
52451;DHT22;38366;53.176;6.540;2022-12-29T11:57:45;10.80;99.90
52451;DHT22;38366;53.176;6.540;2022-12-29T12:00:30;10.80;99.90
52451;DHT22;38366;53.176;6.540;2022-12-29T12:03:04;10.70;99.90
52451;DHT22;38366;53.176;6.540;2022-12-29T12:05:49;10.80;99.90
52451;DHT22;38366;53.176;6.540;2022-12-29T12:08:19;11.40;99.90
52451;DHT22;38366;53.176;6.540;2022-12-29T12:16:07;12.20;99.90
52451;DHT22;38366;53.176;6.540;2022-12-29T12:21:12;11.50;99.90
52451;DHT22;38366;53.176;6.540;2022-12-29T12:23:56;11.10;99.90
52451;DHT22;38366;53.176;6.540;2022-12-29T12:26:28;10.90;99.90
52451;DHT22;38366;53.176;6.540;2022-12-29T12:29:12;11.20;99.90
52451;DHT22;38366;53.176;6.540;2022-12-29T12:31:44;11.30;99.90
52451;DHT22;38366;53.176;6.540;2022-12-29T12:34:13;11.00;99.90
52451;DHT22;38366;53.176;6.540;2022-12-29T12:36:49;10.60;99.90
52451;DHT22;38366;53.176;6.540;2022-12-29T12:39:37;10.30;99.90
52451;DHT22;38366;53.176;6.540;2022-12-29T12:50:27;9.90;99.90
52451;DHT22;38366;53.176;6.540;2022-12-29T12:53:07;9.90;99.90
52451;DHT22;38366;53.176;6.540;2022-12-29T13:00:48;9.90;99.90
52451;DHT22;38366;53.176;6.540;2022-12-29T13:20:58;9.90;99.90
52451;DHT22;38366;53.176;6.540;2022-12-29T13:36:32;9.80;99.90
52451;DHT22;38366;53.176;6.540;2022-12-29T13:39:04;9.70;99.90
52451;DHT22;38366;53.176;6.540;2022-12-29T13:41:35;9.60;99.90
52451;DHT22;38366;53.176;6.540;2022-12-29T13:44:03;9.70;99.90
52451;DHT22;38366;53.176;6.540;2022-12-29T13:46:31;9.60;99.90
52451;DHT22;38366;53.176;6.540;2022-12-29T13:48:59;9.60;99.90
52451;DHT22;38366;53.176;6.540;2022-12-29T13:57:03;9.70;99.90
52451;DHT22;38366;53.176;6.540;2022-12-29T14:05:04;9.80;99.90
52451;DHT22;38366;53.176;6.540;2022-12-29T14:07:35;9.70;99.90
52451;DHT22;38366;53.176;6.540;2022-12-29T14:10:02;9.60;99.90
52451;DHT22;38366;53.176;6.540;2022-12-29T14:15:20;9.40;99.90
52451;DHT22;38366;53.176;6.540;2022-12-29T14:17:43;9.30;99.90
52451;DHT22;38366;53.176;6.540;2022-12-29T14:20:17;9.20;99.90
52451;DHT22;38366;53.176;6.540;2022-12-29T14:23:00;9.20;99.90
52451;DHT22;38366;53.176;6.540;2022-12-29T14:28:15;9.20;99.90
52451;DHT22;38366;53.176;6.540;2022-12-29T14:30:48;9.10;99.90
52451;DHT22;38366;53.176;6.540;2022-12-29T14:33:15;9.10;99.90
52451;DHT22;38366;53.176;6.540;2022-12-29T14:35:42;9.10;99.90
52451;DHT22;38366;53.176;6.540;2022-12-29T14:38:18;9.10;99.90
52451;DHT22;38366;53.176;6.540;2022-12-29T14:40:45;9.10;99.90
52451;DHT22;38366;53.176;6.540;2022-12-29T14:43:12;9.10;99.90
52451;DHT22;38366;53.176;6.540;2022-12-29T14:45:37;9.20;99.90
52451;DHT22;38366;53.176;6.540;2022-12-29T14:48:22;9.00;99.90
52451;DHT22;38366;53.176;6.540;2022-12-29T14:50:52;9.00;99.90
52451;DHT22;38366;53.176;6.540;2022-12-29T14:56:02;8.90;99.90
52451;DHT22;38366;53.176;6.540;2022-12-29T14:58:29;7.90;99.90
52451;DHT22;38366;53.176;6.540;2022-12-29T15:00:56;8.80;99.90
52451;DHT22;38366;53.176;6.540;2022-12-29T15:03:23;8.80;99.90
52451;DHT22;38366;53.176;6.540;2022-12-29T15:05:50;8.80;99.90
52451;DHT22;38366;53.176;6.540;2022-12-29T15:08:18;8.70;99.90
52451;DHT22;38366;53.176;6.540;2022-12-29T15:10:48;8.70;99.90
52451;DHT22;38366;53.176;6.540;2022-12-29T15:13:17;8.60;99.90
52451;DHT22;38366;53.176;6.540;2022-12-29T15:15:46;8.60;99.90
52451;DHT22;38366;53.176;6.540;2022-12-29T15:18:21;8.50;99.90
52451;DHT22;38366;53.176;6.540;2022-12-29T15:20:49;8.80;99.90
52451;DHT22;38366;53.176;6.540;2022-12-29T15:23:16;8.40;99.90
52451;DHT22;38366;53.176;6.540;2022-12-29T15:25:46;8.50;99.90
52451;DHT22;38366;53.176;6.540;2022-12-29T15:28:12;8.50;99.90
52451;DHT22;38366;53.176;6.540;2022-12-29T15:30:49;8.50;99.90
52451;DHT22;38366;53.176;6.540;2022-12-29T15:33:19;8.50;99.90
52451;DHT22;38366;53.176;6.540;2022-12-29T15:35:44;7.90;99.90
52451;DHT22;38366;53.176;6.540;2022-12-29T15:38:21;8.40;99.90
52451;DHT22;38366;53.176;6.540;2022-12-29T15:40:48;8.40;99.90
52451;DHT22;38366;53.176;6.540;2022-12-29T15:46:01;8.30;99.90
52451;DHT22;38366;53.176;6.540;2022-12-29T15:48:27;8.30;99.90
52451;DHT22;38366;53.176;6.540;2022-12-29T15:50:53;8.30;99.90
52451;DHT22;38366;53.176;6.540;2022-12-29T15:53:29;8.30;99.90
52451;DHT22;38366;53.176;6.540;2022-12-29T15:56:05;8.30;99.90
52451;DHT22;38366;53.176;6.540;2022-12-29T15:58:32;7.30;99.90
52451;DHT22;38366;53.176;6.540;2022-12-29T16:01:04;8.20;99.90
52451;DHT22;38366;53.176;6.540;2022-12-29T16:03:31;8.20;99.90
52451;DHT22;38366;53.176;6.540;2022-12-29T16:06:06;8.30;99.90
52451;DHT22;38366;53.176;6.540;2022-12-29T16:08:34;8.20;99.90
52451;DHT22;38366;53.176;6.540;2022-12-29T16:11:03;8.30;99.90
52451;DHT22;38366;53.176;6.540;2022-12-29T16:13:32;8.30;99.90
52451;DHT22;38366;53.176;6.540;2022-12-29T16:16:03;8.30;99.90
52451;DHT22;38366;53.176;6.540;2022-12-29T16:18:34;8.30;99.90
52451;DHT22;38366;53.176;6.540;2022-12-29T16:21:00;8.20;99.90
52451;DHT22;38366;53.176;6.540;2022-12-29T16:23:27;8.30;99.90
52451;DHT22;38366;53.176;6.540;2022-12-29T16:25:54;8.30;99.90
52451;DHT22;38366;53.176;6.540;2022-12-29T16:28:21;8.10;99.90
52451;DHT22;38366;53.176;6.540;2022-12-29T16:30:57;8.00;99.90
52451;DHT22;38366;53.176;6.540;2022-12-29T16:33:32;7.80;99.90
52451;DHT22;38366;53.176;6.540;2022-12-29T16:36:00;7.70;99.90
52451;DHT22;38366;53.176;6.540;2022-12-29T16:38:30;7.50;99.90
52451;DHT22;38366;53.176;6.540;2022-12-29T16:40:57;7.40;99.90
52451;DHT22;38366;53.176;6.540;2022-12-29T16:43:24;7.30;99.90
52451;DHT22;38366;53.176;6.540;2022-12-29T16:48:17;7.20;99.90
52451;DHT22;38366;53.176;6.540;2022-12-29T16:50:44;7.20;99.90
52451;DHT22;38366;53.176;6.540;2022-12-29T16:55:46;7.10;99.90
52451;DHT22;38366;53.176;6.540;2022-12-29T16:58:12;7.10;99.90
52451;DHT22;38366;53.176;6.540;2022-12-29T17:00:44;7.00;99.90
52451;DHT22;38366;53.176;6.540;2022-12-29T17:03:10;7.50;99.90
52451;DHT22;38366;53.176;6.540;2022-12-29T17:05:36;7.30;99.90
52451;DHT22;38366;53.176;6.540;2022-12-29T17:08:02;7.10;99.90
52451;DHT22;38366;53.176;6.540;2022-12-29T17:10:27;7.20;99.90
52451;DHT22;38366;53.176;6.540;2022-12-29T17:13:13;7.20;99.90
52451;DHT22;38366;53.176;6.540;2022-12-29T17:15:39;7.20;99.90
52451;DHT22;38366;53.176;6.540;2022-12-29T17:18:04;7.20;99.90
52451;DHT22;38366;53.176;6.540;2022-12-29T17:20:31;7.10;99.90
52451;DHT22;38366;53.176;6.540;2022-12-29T17:22:57;7.20;99.90
52451;DHT22;38366;53.176;6.540;2022-12-29T17:25:26;7.20;99.90
52451;DHT22;38366;53.176;6.540;2022-12-29T17:27:58;7.30;99.90
52451;DHT22;38366;53.176;6.540;2022-12-29T17:30:24;7.30;99.90
52451;DHT22;38366;53.176;6.540;2022-12-29T17:32:51;7.40;99.90
52451;DHT22;38366;53.176;6.540;2022-12-29T17:35:18;7.40;99.90
52451;DHT22;38366;53.176;6.540;2022-12-29T17:37:44;7.50;99.90
52451;DHT22;38366;53.176;6.540;2022-12-29T17:40:12;7.50;99.90
52451;DHT22;38366;53.176;6.540;2022-12-29T17:42:40;7.60;99.90
52451;DHT22;38366;53.176;6.540;2022-12-29T17:45:11;7.60;99.90
52451;DHT22;38366;53.176;6.540;2022-12-29T17:47:40;7.60;99.90
52451;DHT22;38366;53.176;6.540;2022-12-29T17:50:08;7.50;99.90
52451;DHT22;38366;53.176;6.540;2022-12-29T17:52:34;7.60;99.90
52451;DHT22;38366;53.176;6.540;2022-12-29T17:55:00;7.80;99.90
52451;DHT22;38366;53.176;6.540;2022-12-29T17:57:25;7.60;99.90
52451;DHT22;38366;53.176;6.540;2022-12-29T17:59:51;7.60;99.90
52451;DHT22;38366;53.176;6.540;2022-12-29T18:02:27;7.60;99.90
52451;DHT22;38366;53.176;6.540;2022-12-29T18:04:53;7.60;99.90
52451;DHT22;38366;53.176;6.540;2022-12-29T18:07:19;7.60;99.90
52451;DHT22;38366;53.176;6.540;2022-12-29T18:09:45;7.60;99.90